Terminal Aerodrome Forecast
Issued by NWS

Current Version | Previous Version | Text Only | Print | Product List | Glossary On
Versions: 1 2 3 4 5 6 7 8 9 10 11 12 13 14 15 16 17 18 19 20 21 22 23 24 25 26 27 28 29 30 31 32 33
000
FTPQ31 PGUM 281144
TAFGUM
TAF

TAF
PGRO 281144Z 2812/2912 07011KT P6SM VCSH FEW018 SCT050 BKN120
     FM290100 07014G24KT P6SM VCSH FEW018 SCT050 SCT120=

USA.gov is the U.S. government's official web portal to all federal, state and local government web resources and services.